Time;durP1;ratioP1;P1;durP2;ratioP2;P2;SDS_P1;SDS_P2;PMS_P1;PMS_P2;Temp;Humidity;BMP_temperature;BMP_pressure;BME280_temperature;BME280_humidity;BME280_pressure;Samples;Min_cycle;Max_cycle;Signal;HPM_P1;HPM_P2
2023/09/20 00:00:54;;;;;;;6.20;3.88;;;;;;;;;;2074608;28;20038;-56
2023/09/20 00:01:54;;;;;;;4.90;3.70;;;;;;;;;;2074356;28;20045;-55
2023/09/20 00:02:56;;;;;;;7.45;3.75;;;;;;;;;;2073887;28;20037;-55
2023/09/20 00:03:57;;;;;;;4.55;3.90;;;;;;;;;;2073815;28;20038;-56
2023/09/20 00:05:00;;;;;;;4.75;3.85;;;;;;;;;;2074074;28;20053;-56
2023/09/20 00:06:07;;;;;;;6.10;3.70;;;;;;;;;;2074714;28;20136;-56
2023/09/20 00:07:08;;;;;;;4.88;4.20;;;;;;;;;;2074483;28;20037;-56
2023/09/20 00:08:09;;;;;;;6.65;3.90;;;;;;;;;;2074298;28;20046;-56
2023/09/20 00:09:10;;;;;;;5.28;4.00;;;;;;;;;;2074454;28;20037;-56
2023/09/20 00:10:14;;;;;;;6.47;3.83;;;;;;;;;;2074002;28;20053;-56
2023/09/20 00:11:18;;;;;;;6.45;4.32;;;;;;;;;;2074342;28;20038;-56
2023/09/20 00:12:19;;;;;;;5.97;3.90;;;;;;;;;;2074640;28;20038;-56
2023/09/20 00:13:20;;;;;;;5.57;3.85;;;;;;;;;;2074583;28;20462;-56
2023/09/20 00:14:21;;;;;;;6.95;3.70;;;;;;;;;;2073893;28;20053;-56
2023/09/20 00:15:23;;;;;;;6.82;4.00;;;;;;;;;;2074256;28;20037;-55
2023/09/20 00:16:24;;;;;;;7.10;3.92;;;;;;;;;;2074300;28;20030;-56
2023/09/20 00:17:25;;;;;;;6.97;3.67;;;;;;;;;;2073771;28;20490;-55
2023/09/20 00:18:26;;;;;;;6.95;4.07;;;;;;;;;;2074461;28;20103;-56
2023/09/20 00:19:26;;;;;;;6.43;3.75;;;;;;;;;;2074050;28;20402;-57
2023/09/20 00:20:27;;;;;;;8.10;4.43;;;;;;;;;;2073990;28;20037;-56
2023/09/20 00:21:28;;;;;;;6.70;3.95;;;;;;;;;;2072964;28;20054;-56
2023/09/20 00:22:28;;;;;;;5.65;4.05;;;;;;;;;;2074360;28;20037;-56
2023/09/20 00:23:29;;;;;;;5.05;3.80;;;;;;;;;;2073870;28;20058;-56
2023/09/20 00:24:30;;;;;;;6.05;4.10;;;;;;;;;;2074341;28;20091;-55
2023/09/20 00:25:31;;;;;;;5.72;4.15;;;;;;;;;;2073719;28;20482;-56
2023/09/20 00:26:33;;;;;;;6.72;3.55;;;;;;;;;;2074164;28;20046;-56
2023/09/20 00:27:34;;;;;;;5.78;3.88;;;;;;;;;;2073899;28;20486;-56
2023/09/20 00:28:35;;;;;;;8.10;4.10;;;;;;;;;;2074169;28;20034;-56
2023/09/20 00:29:37;;;;;;;6.20;4.22;;;;;;;;;;2073915;28;20057;-56
2023/09/20 00:30:40;;;;;;;8.98;4.45;;;;;;;;;;2074272;28;20029;-56
2023/09/20 00:31:40;;;;;;;5.60;3.58;;;;;;;;;;2073852;28;20041;-56
2023/09/20 00:32:42;;;;;;;7.78;4.20;;;;;;;;;;2073503;28;20058;-55
2023/09/20 00:33:43;;;;;;;7.97;4.72;;;;;;;;;;2073238;28;20042;-56
2023/09/20 00:34:44;;;;;;;7.45;3.92;;;;;;;;;;2073745;28;20053;-55
2023/09/20 00:35:44;;;;;;;6.78;3.65;;;;;;;;;;2074113;28;20067;-56
2023/09/20 00:36:46;;;;;;;9.05;4.40;;;;;;;;;;2073487;28;20045;-56
2023/09/20 00:37:47;;;;;;;7.30;4.10;;;;;;;;;;2065266;28;20035;-56
2023/09/20 00:38:49;;;;;;;6.07;3.35;;;;;;;;;;2072919;28;20049;-55
2023/09/20 00:39:50;;;;;;;6.82;3.92;;;;;;;;;;2074069;28;20036;-56
2023/09/20 00:40:52;;;;;;;4.53;3.45;;;;;;;;;;2074058;28;20037;-56
2023/09/20 00:41:53;;;;;;;5.47;4.07;;;;;;;;;;2073756;28;20053;-56
2023/09/20 00:42:57;;;;;;;6.15;4.28;;;;;;;;;;2073343;28;20560;-56
2023/09/20 00:43:58;;;;;;;5.13;3.97;;;;;;;;;;2073595;28;20038;-56
2023/09/20 00:45:01;;;;;;;6.90;3.65;;;;;;;;;;2073735;28;20046;-56
2023/09/20 00:46:03;;;;;;;5.18;3.90;;;;;;;;;;2074175;28;20381;-56
2023/09/20 00:47:04;;;;;;;6.07;4.07;;;;;;;;;;2073549;28;20053;-56
2023/09/20 00:48:05;;;;;;;8.43;4.45;;;;;;;;;;2073199;28;20391;-56
2023/09/20 00:49:06;;;;;;;5.85;4.07;;;;;;;;;;2073338;28;20046;-58
2023/09/20 00:50:10;;;;;;;5.70;3.88;;;;;;;;;;2065468;28;20054;-56
2023/09/20 00:51:11;;;;;;;6.75;4.20;;;;;;;;;;2073137;28;20073;-56
2023/09/20 00:52:13;;;;;;;5.07;3.97;;;;;;;;;;2072864;28;20042;-55
2023/09/20 00:53:14;;;;;;;9.02;4.75;;;;;;;;;;2064764;28;20043;-56
2023/09/20 00:54:14;;;;;;;7.78;4.68;;;;;;;;;;2065159;28;20042;-55
2023/09/20 00:55:20;;;;;;;7.75;4.30;;;;;;;;;;2064905;28;20057;-56
2023/09/20 00:56:21;;;;;;;8.50;4.30;;;;;;;;;;2073308;28;20068;-55
2023/09/20 00:57:22;;;;;;;7.47;4.82;;;;;;;;;;2074106;28;20036;-57
2023/09/20 00:58:23;;;;;;;7.22;4.60;;;;;;;;;;2072972;28;20042;-56
2023/09/20 00:59:24;;;;;;;7.13;4.60;;;;;;;;;;2073446;28;20371;-56
2023/09/20 01:00:28;;;;;;;8.55;4.57;;;;;;;;;;2072539;28;20133;-56
2023/09/20 01:01:29;;;;;;;9.10;4.63;;;;;;;;;;2065648;28;20039;-56
2023/09/20 01:02:30;;;;;;;7.07;4.10;;;;;;;;;;2073158;28;20053;-56
2023/09/20 01:03:32;;;;;;;7.97;4.72;;;;;;;;;;2073653;28;20041;-55
2023/09/20 01:04:34;;;;;;;6.88;4.10;;;;;;;;;;2074086;28;20394;-56
2023/09/20 01:05:36;;;;;;;6.97;4.90;;;;;;;;;;2073978;28;20045;-57
2023/09/20 01:06:39;;;;;;;8.80;4.80;;;;;;;;;;2073938;28;20053;-56
2023/09/20 01:07:42;;;;;;;8.43;5.15;;;;;;;;;;2073948;28;20466;-56
2023/09/20 01:08:46;;;;;;;6.65;4.85;;;;;;;;;;2073427;28;20065;-56
2023/09/20 01:09:47;;;;;;;7.78;4.97;;;;;;;;;;2065667;28;20038;-56
2023/09/20 01:10:48;;;;;;;6.30;5.03;;;;;;;;;;2073370;28;20078;-56
2023/09/20 01:11:49;;;;;;;7.78;5.38;;;;;;;;;;2073224;28;20433;-56
2023/09/20 01:12:54;;;;;;;5.63;4.50;;;;;;;;;;2073064;28;20045;-56
2023/09/20 01:13:54;;;;;;;5.72;4.55;;;;;;;;;;2074013;28;20030;-56
2023/09/20 01:14:55;;;;;;;6.47;4.57;;;;;;;;;;2073921;28;20116;-56
2023/09/20 01:15:56;;;;;;;7.40;4.60;;;;;;;;;;2073452;28;20492;-55
2023/09/20 01:16:57;;;;;;;8.07;5.00;;;;;;;;;;2074299;28;20046;-55
2023/09/20 01:17:58;;;;;;;6.95;4.85;;;;;;;;;;2066103;28;20137;-56
2023/09/20 01:19:00;;;;;;;6.70;4.45;;;;;;;;;;2074729;28;20030;-58
2023/09/20 01:20:01;;;;;;;7.70;5.07;;;;;;;;;;2074894;28;20041;-59
2023/09/20 01:21:03;;;;;;;6.40;4.38;;;;;;;;;;2074437;28;20034;-56
2023/09/20 01:22:04;;;;;;;9.00;4.95;;;;;;;;;;2074782;28;20037;-56
2023/09/20 01:23:05;;;;;;;6.68;4.90;;;;;;;;;;2064867;28;20042;-56
2023/09/20 01:24:06;;;;;;;7.53;5.15;;;;;;;;;;2065514;28;20049;-56
2023/09/20 01:25:07;;;;;;;5.60;4.55;;;;;;;;;;2074327;28;20038;-56
2023/09/20 01:26:09;;;;;;;8.05;4.80;;;;;;;;;;2073064;28;20045;-56
2023/09/20 01:27:10;;;;;;;8.65;4.95;;;;;;;;;;2064592;28;20046;-56
2023/09/20 01:28:11;;;;;;;8.32;4.82;;;;;;;;;;2064190;28;20050;-56
2023/09/20 01:29:12;;;;;;;8.23;4.82;;;;;;;;;;2065179;28;20521;-55
2023/09/20 01:30:13;;;;;;;6.47;4.90;;;;;;;;;;2073277;28;20041;-56
2023/09/20 01:31:14;;;;;;;6.93;5.22;;;;;;;;;;2072679;28;20042;-56
2023/09/20 01:32:15;;;;;;;7.53;4.97;;;;;;;;;;2064813;28;20050;-55
2023/09/20 01:33:16;;;;;;;6.57;4.57;;;;;;;;;;2072891;28;20046;-56
2023/09/20 01:34:16;;;;;;;8.77;4.72;;;;;;;;;;2073900;28;20042;-56
2023/09/20 01:35:17;;;;;;;8.90;4.95;;;;;;;;;;2073370;28;20029;-56
2023/09/20 01:36:19;;;;;;;7.20;5.15;;;;;;;;;;2073303;28;20064;-56
2023/09/20 01:37:20;;;;;;;6.63;4.63;;;;;;;;;;2073772;28;20042;-55
2023/09/20 01:38:21;;;;;;;6.10;4.82;;;;;;;;;;2073257;28;20041;-56
2023/09/20 01:39:22;;;;;;;6.40;4.50;;;;;;;;;;2072587;28;20119;-56
2023/09/20 01:40:26;;;;;;;7.30;4.97;;;;;;;;;;2072840;28;20046;-56
2023/09/20 01:41:27;;;;;;;5.90;4.63;;;;;;;;;;2073059;28;20050;-56
2023/09/20 01:42:29;;;;;;;9.23;4.97;;;;;;;;;;2073010;28;20049;-56
2023/09/20 01:43:30;;;;;;;8.52;5.05;;;;;;;;;;2074022;28;20054;-56
2023/09/20 01:44:30;;;;;;;5.63;4.65;;;;;;;;;;2072450;28;20057;-56
2023/09/20 01:45:33;;;;;;;6.50;4.32;;;;;;;;;;2073185;28;20057;-56
2023/09/20 01:46:34;;;;;;;10.90;5.32;;;;;;;;;;2073863;28;20064;-56
2023/09/20 01:47:34;;;;;;;6.65;4.40;;;;;;;;;;2074696;28;20049;-56
2023/09/20 01:48:36;;;;;;;5.75;4.50;;;;;;;;;;2075175;28;20046;-56
2023/09/20 01:49:37;;;;;;;6.60;4.80;;;;;;;;;;2074752;28;20057;-56
2023/09/20 01:50:38;;;;;;;8.73;5.38;;;;;;;;;;2075453;28;20544;-56
2023/09/20 01:51:38;;;;;;;7.03;4.43;;;;;;;;;;2075726;28;20041;-56
2023/09/20 01:52:39;;;;;;;6.60;4.43;;;;;;;;;;2074924;28;20041;-56
2023/09/20 01:53:40;;;;;;;6.20;4.72;;;;;;;;;;2066652;28;20042;-56
2023/09/20 01:54:42;;;;;;;6.53;4.50;;;;;;;;;;2074832;28;20046;-56
2023/09/20 01:55:43;;;;;;;10.77;4.68;;;;;;;;;;2075357;28;20037;-56
2023/09/20 01:56:43;;;;;;;5.78;4.47;;;;;;;;;;2074667;28;20038;-56
2023/09/20 01:57:47;;;;;;;9.05;4.60;;;;;;;;;;2067001;28;20042;-56
2023/09/20 01:58:49;;;;;;;6.88;4.35;;;;;;;;;;2066312;28;20038;-56
2023/09/20 01:59:51;;;;;;;7.82;4.70;;;;;;;;;;2058687;28;20046;-56
2023/09/20 02:00:52;;;;;;;7.22;4.63;;;;;;;;;;2066734;28;20046;-56
2023/09/20 02:01:53;;;;;;;5.32;4.40;;;;;;;;;;2074443;28;20470;-56
2023/09/20 02:02:54;;;;;;;6.95;4.70;;;;;;;;;;2075260;28;20049;-56
2023/09/20 02:03:55;;;;;;;5.88;4.57;;;;;;;;;;2075615;28;20029;-56
2023/09/20 02:04:56;;;;;;;7.97;4.65;;;;;;;;;;2075343;28;20034;-56
2023/09/20 02:05:58;;;;;;;5.57;4.60;;;;;;;;;;2074369;28;20068;-56
2023/09/20 02:06:59;;;;;;;7.00;4.80;;;;;;;;;;2066408;28;20050;-56
2023/09/20 02:08:00;;;;;;;7.20;4.80;;;;;;;;;;2066290;28;20081;-56
2023/09/20 02:09:01;;;;;;;6.18;4.68;;;;;;;;;;2066057;28;20053;-57
2023/09/20 02:10:06;;;;;;;6.15;4.78;;;;;;;;;;2066647;28;20035;-56
2023/09/20 02:11:08;;;;;;;6.47;4.88;;;;;;;;;;2074438;28;20060;-56
2023/09/20 02:12:09;;;;;;;5.20;4.30;;;;;;;;;;2074646;28;20038;-56
2023/09/20 02:13:10;;;;;;;8.20;5.30;;;;;;;;;;2074382;28;20509;-56
2023/09/20 02:14:11;;;;;;;6.70;4.20;;;;;;;;;;2074878;28;20056;-56
2023/09/20 02:15:12;;;;;;;5.80;4.63;;;;;;;;;;2074393;28;20042;-56
2023/09/20 02:16:14;;;;;;;7.22;4.45;;;;;;;;;;2058338;28;20047;-56
2023/09/20 02:17:17;;;;;;;6.50;4.47;;;;;;;;;;2066024;28;20046;-56
2023/09/20 02:18:17;;;;;;;7.97;4.93;;;;;;;;;;2074618;28;20072;-56
2023/09/20 02:19:19;;;;;;;8.98;4.72;;;;;;;;;;2074446;28;20133;-56
2023/09/20 02:20:20;;;;;;;6.57;4.80;;;;;;;;;;2082430;28;20505;-56
2023/09/20 02:21:22;;;;;;;8.82;4.97;;;;;;;;;;2074198;28;20049;-56
2023/09/20 02:22:22;;;;;;;6.85;5.20;;;;;;;;;;2066576;28;20046;-56
2023/09/20 02:23:27;;;;;;;6.70;5.63;;;;;;;;;;2066260;28;20101;-57
2023/09/20 02:24:28;;;;;;;6.43;5.20;;;;;;;;;;2074568;28;20041;-56
2023/09/20 02:25:29;;;;;;;6.13;4.70;;;;;;;;;;2075066;28;20034;-56
2023/09/20 02:26:30;;;;;;;7.68;5.60;;;;;;;;;;2074262;28;20050;-56
2023/09/20 02:27:31;;;;;;;5.75;4.63;;;;;;;;;;2075169;28;20026;-56
2023/09/20 02:28:34;;;;;;;8.27;5.03;;;;;;;;;;2074827;28;20042;-56
2023/09/20 02:29:34;;;;;;;8.07;5.13;;;;;;;;;;2075044;28;20046;-56
2023/09/20 02:30:36;;;;;;;6.45;5.43;;;;;;;;;;2075099;28;20038;-56
2023/09/20 02:31:36;;;;;;;7.45;5.20;;;;;;;;;;2075385;28;20494;-56
2023/09/20 02:32:38;;;;;;;5.55;4.70;;;;;;;;;;2074492;28;20038;-56
2023/09/20 02:33:38;;;;;;;8.30;5.05;;;;;;;;;;2074427;28;20117;-56
2023/09/20 02:34:39;;;;;;;9.07;5.40;;;;;;;;;;2075003;28;20057;-56
2023/09/20 02:35:40;;;;;;;8.05;6.03;;;;;;;;;;2075110;28;20402;-56
2023/09/20 02:36:41;;;;;;;6.63;5.30;;;;;;;;;;2075055;28;20046;-56
2023/09/20 02:37:43;;;;;;;6.57;4.45;;;;;;;;;;2074804;28;20091;-56
2023/09/20 02:38:44;;;;;;;9.43;5.97;;;;;;;;;;2074681;28;20473;-56
2023/09/20 02:39:45;;;;;;;7.13;5.32;;;;;;;;;;2074619;28;20037;-56
2023/09/20 02:40:46;;;;;;;9.93;5.20;;;;;;;;;;2073923;28;20037;-55
2023/09/20 02:41:47;;;;;;;6.93;5.30;;;;;;;;;;2066372;28;20117;-56
2023/09/20 02:42:48;;;;;;;6.82;4.90;;;;;;;;;;2073538;28;20053;-56
2023/09/20 02:43:51;;;;;;;6.25;5.22;;;;;;;;;;2074350;28;20497;-56
2023/09/20 02:44:56;;;;;;;6.30;5.40;;;;;;;;;;2074602;28;20037;-56
2023/09/20 02:46:02;;;;;;;7.28;5.97;;;;;;;;;;2074517;28;20453;-56
2023/09/20 02:47:03;;;;;;;7.97;5.82;;;;;;;;;;2073947;28;20042;-56
2023/09/20 02:48:05;;;;;;;8.50;5.53;;;;;;;;;;2066085;28;20082;-57
2023/09/20 02:49:07;;;;;;;8.73;5.47;;;;;;;;;;2073680;28;20045;-56
2023/09/20 02:50:08;;;;;;;7.43;5.50;;;;;;;;;;2074285;28;20540;-56
2023/09/20 02:51:09;;;;;;;9.68;5.97;;;;;;;;;;2074059;28;20038;-56
2023/09/20 02:52:10;;;;;;;7.55;5.20;;;;;;;;;;2066023;28;20085;-55
2023/09/20 02:53:10;;;;;;;6.57;4.88;;;;;;;;;;2074314;28;20474;-56
2023/09/20 02:54:12;;;;;;;10.27;4.88;;;;;;;;;;2074902;28;20049;-56
2023/09/20 02:55:13;;;;;;;6.82;5.10;;;;;;;;;;2075012;28;20044;-56
2023/09/20 02:56:14;;;;;;;6.68;5.25;;;;;;;;;;2074404;28;20490;-56
2023/09/20 02:57:15;;;;;;;6.88;5.28;;;;;;;;;;2066160;28;20046;-56
2023/09/20 02:58:17;;;;;;;7.47;4.78;;;;;;;;;;2066084;28;20050;-56
2023/09/20 02:59:20;;;;;;;6.25;5.10;;;;;;;;;;2066332;28;20074;-56
2023/09/20 03:00:21;;;;;;;9.18;5.45;;;;;;;;;;2074208;28;20038;-56
2023/09/20 03:01:24;;;;;;;7.15;5.13;;;;;;;;;;2074100;28;20379;-56
2023/09/20 03:02:25;;;;;;;8.95;5.20;;;;;;;;;;2074898;28;20477;-55
2023/09/20 03:03:27;;;;;;;6.32;5.05;;;;;;;;;;2073806;28;20052;-55
2023/09/20 03:04:29;;;;;;;9.00;5.00;;;;;;;;;;2065658;28;20038;-57
2023/09/20 03:05:30;;;;;;;6.28;4.70;;;;;;;;;;2073946;28;20046;-56
2023/09/20 03:06:31;;;;;;;6.75;4.70;;;;;;;;;;2065535;28;20038;-57
2023/09/20 03:07:32;;;;;;;9.85;5.13;;;;;;;;;;2074412;28;20385;-56
2023/09/20 03:08:34;;;;;;;6.43;5.00;;;;;;;;;;2074298;28;20041;-56
2023/09/20 03:09:36;;;;;;;6.82;5.22;;;;;;;;;;2066151;28;20034;-56
2023/09/20 03:10:38;;;;;;;5.82;4.55;;;;;;;;;;2065937;28;20051;-56
2023/09/20 03:11:39;;;;;;;5.68;4.47;;;;;;;;;;2066266;28;20049;-56
2023/09/20 03:12:43;;;;;;;5.85;4.68;;;;;;;;;;2074436;28;20041;-56
2023/09/20 03:13:44;;;;;;;5.57;4.90;;;;;;;;;;2074108;28;20045;-56
2023/09/20 03:14:45;;;;;;;7.65;4.75;;;;;;;;;;2065864;28;20069;-56
2023/09/20 03:15:47;;;;;;;6.60;4.75;;;;;;;;;;2065754;28;20038;-56
2023/09/20 03:16:51;;;;;;;7.82;4.53;;;;;;;;;;2066617;28;20038;-56
2023/09/20 03:17:53;;;;;;;6.30;4.47;;;;;;;;;;2066089;28;20050;-56
2023/09/20 03:18:53;;;;;;;6.43;4.20;;;;;;;;;;2074208;28;20058;-56
2023/09/20 03:19:54;;;;;;;6.40;4.53;;;;;;;;;;2073491;28;20490;-55
2023/09/20 03:21:05;;;;;;;6.35;4.35;;;;;;;;;;2066005;28;20445;-56
2023/09/20 03:22:06;;;;;;;6.15;4.70;;;;;;;;;;2066977;28;20038;-57
2023/09/20 03:23:07;;;;;;;7.13;4.65;;;;;;;;;;2074026;28;20034;-56
2023/09/20 03:24:09;;;;;;;9.88;4.88;;;;;;;;;;2074279;28;20041;-57
2023/09/20 03:25:13;;;;;;;5.70;4.43;;;;;;;;;;2074159;28;20034;-57
2023/09/20 03:26:16;;;;;;;5.22;4.38;;;;;;;;;;2066152;28;20426;-57
2023/09/20 03:27:16;;;;;;;7.63;4.97;;;;;;;;;;2065645;28;20433;-57
2023/09/20 03:28:19;;;;;;;6.28;5.00;;;;;;;;;;2065696;28;20154;-56
2023/09/20 03:29:23;;;;;;;7.03;4.90;;;;;;;;;;2065965;28;20046;-56
2023/09/20 03:30:28;;;;;;;9.50;4.68;;;;;;;;;;2066118;28;20093;-56
2023/09/20 03:31:31;;;;;;;6.20;4.72;;;;;;;;;;2066262;28;20126;-56
2023/09/20 03:32:33;;;;;;;6.30;5.15;;;;;;;;;;2057896;28;20050;-56
2023/09/20 03:33:34;;;;;;;8.07;4.43;;;;;;;;;;2057963;28;20045;-56
2023/09/20 03:34:35;;;;;;;6.60;4.13;;;;;;;;;;2074311;28;20049;-57
2023/09/20 03:35:37;;;;;;;6.18;4.53;;;;;;;;;;2073519;28;20038;-57
2023/09/20 03:36:41;;;;;;;6.15;4.47;;;;;;;;;;2073680;28;20426;-56
2023/09/20 03:37:43;;;;;;;6.43;4.80;;;;;;;;;;2073955;28;20038;-56
2023/09/20 03:38:44;;;;;;;7.25;4.60;;;;;;;;;;2065384;28;20068;-56
2023/09/20 03:39:46;;;;;;;5.85;4.63;;;;;;;;;;2065873;28;20501;-56
2023/09/20 03:40:46;;;;;;;6.88;4.95;;;;;;;;;;2073953;28;20088;-56
2023/09/20 03:41:47;;;;;;;6.68;4.35;;;;;;;;;;2081591;28;20061;-56
2023/09/20 03:42:48;;;;;;;9.32;6.32;;;;;;;;;;2073918;28;20089;-56
2023/09/20 03:43:49;;;;;;;5.72;4.80;;;;;;;;;;2065820;28;20037;-56
2023/09/20 03:44:50;;;;;;;6.57;4.80;;;;;;;;;;2073937;28;20037;-56
2023/09/20 03:45:51;;;;;;;6.88;4.40;;;;;;;;;;2065540;28;20065;-56
2023/09/20 03:46:52;;;;;;;7.60;4.75;;;;;;;;;;2065574;28;20418;-56
2023/09/20 03:47:53;;;;;;;6.00;3.90;;;;;;;;;;2074048;28;20037;-56
2023/09/20 03:48:56;;;;;;;6.40;4.38;;;;;;;;;;2074113;28;20037;-56
2023/09/20 03:49:56;;;;;;;6.05;4.07;;;;;;;;;;2065700;28;20042;-56
2023/09/20 03:50:57;;;;;;;6.45;4.10;;;;;;;;;;2065220;28;20050;-56
2023/09/20 03:52:00;;;;;;;5.50;4.30;;;;;;;;;;2065741;28;20045;-56
2023/09/20 03:53:02;;;;;;;4.97;3.97;;;;;;;;;;2074473;28;20041;-56
2023/09/20 03:54:04;;;;;;;9.70;4.40;;;;;;;;;;2073796;28;20037;-56
2023/09/20 03:55:05;;;;;;;6.22;3.95;;;;;;;;;;2074062;28;20045;-56
2023/09/20 03:56:08;;;;;;;7.90;3.95;;;;;;;;;;2073826;28;20050;-56
2023/09/20 03:57:09;;;;;;;4.50;3.75;;;;;;;;;;2065080;28;20046;-56
2023/09/20 03:58:11;;;;;;;6.85;4.05;;;;;;;;;;2065188;28;20051;-56
2023/09/20 03:59:12;;;;;;;5.68;4.10;;;;;;;;;;2065548;28;20524;-56
2023/09/20 04:00:27;;;;;;;5.55;4.10;;;;;;;;;;2065176;28;20080;-56
2023/09/20 04:01:28;;;;;;;6.63;4.03;;;;;;;;;;2061534;28;20065;-56
2023/09/20 04:02:29;;;;;;;6.60;4.07;;;;;;;;;;2065319;28;20061;-56
2023/09/20 04:03:30;;;;;;;5.45;4.07;;;;;;;;;;2073899;28;20029;-56
2023/09/20 04:04:33;;;;;;;5.38;4.15;;;;;;;;;;2065062;28;20488;-56
2023/09/20 04:05:35;;;;;;;6.50;4.20;;;;;;;;;;2065888;28;20034;-56
2023/09/20 04:06:36;;;;;;;6.22;4.47;;;;;;;;;;2065773;28;20034;-56
2023/09/20 04:07:37;;;;;;;5.18;3.67;;;;;;;;;;2065572;28;20042;-56
2023/09/20 04:08:38;;;;;;;5.07;4.05;;;;;;;;;;2073803;28;20054;-56
2023/09/20 04:09:39;;;;;;;6.30;3.55;;;;;;;;;;2072512;28;20049;-56
2023/09/20 04:10:42;;;;;;;4.65;4.05;;;;;;;;;;2065583;28;20053;-56
2023/09/20 04:11:42;;;;;;;5.13;4.00;;;;;;;;;;2073451;28;20038;-56
2023/09/20 04:12:49;;;;;;;5.85;3.92;;;;;;;;;;2074272;28;20367;-56
2023/09/20 04:13:50;;;;;;;6.93;4.05;;;;;;;;;;2073679;28;20517;-56
2023/09/20 04:14:52;;;;;;;5.90;3.95;;;;;;;;;;2073756;28;20541;-56
2023/09/20 04:15:52;;;;;;;6.65;3.67;;;;;;;;;;2073153;28;20041;-56
2023/09/20 04:16:54;;;;;;;5.07;3.80;;;;;;;;;;2073197;28;20029;-57
2023/09/20 04:17:55;;;;;;;5.68;3.83;;;;;;;;;;2073784;28;20525;-56
2023/09/20 04:18:56;;;;;;;5.43;3.92;;;;;;;;;;2065737;28;20071;-56
2023/09/20 04:19:56;;;;;;;7.22;3.70;;;;;;;;;;2065537;28;20062;-57
2023/09/20 04:20:57;;;;;;;4.93;3.50;;;;;;;;;;2065658;28;20394;-56
2023/09/20 04:22:01;;;;;;;5.07;3.40;;;;;;;;;;2073437;28;20048;-56
2023/09/20 04:23:02;;;;;;;5.32;3.80;;;;;;;;;;2073004;28;20092;-56
2023/09/20 04:24:05;;;;;;;7.20;3.83;;;;;;;;;;2072969;28;20038;-56
2023/09/20 04:25:06;;;;;;;4.43;3.72;;;;;;;;;;2073488;28;20050;-56
2023/09/20 04:26:09;;;;;;;7.20;4.22;;;;;;;;;;2065801;28;20042;-57
2023/09/20 04:27:10;;;;;;;5.30;3.80;;;;;;;;;;2065223;28;20042;-56
2023/09/20 04:28:10;;;;;;;7.88;4.53;;;;;;;;;;2065942;28;20050;-56
2023/09/20 04:29:11;;;;;;;4.45;3.67;;;;;;;;;;2065181;28;20053;-56
2023/09/20 04:30:14;;;;;;;8.13;4.07;;;;;;;;;;2065109;28;20133;-56
2023/09/20 04:31:16;;;;;;;7.05;4.15;;;;;;;;;;2065791;28;20042;-56
2023/09/20 04:32:18;;;;;;;5.40;3.67;;;;;;;;;;2065359;28;20047;-56
2023/09/20 04:33:19;;;;;;;5.18;3.97;;;;;;;;;;2065264;28;20046;-57
2023/09/20 04:34:22;;;;;;;5.15;3.90;;;;;;;;;;2065316;28;20109;-57
2023/09/20 04:35:23;;;;;;;5.53;3.83;;;;;;;;;;2073731;28;20512;-56
2023/09/20 04:36:23;;;;;;;5.35;4.03;;;;;;;;;;2073280;28;20512;-56
2023/09/20 04:37:25;;;;;;;5.50;3.95;;;;;;;;;;2073113;28;20046;-56
2023/09/20 04:38:26;;;;;;;4.90;3.85;;;;;;;;;;2073688;28;20045;-56
2023/09/20 04:39:27;;;;;;;5.97;4.25;;;;;;;;;;2073220;28;20045;-56
2023/09/20 04:40:28;;;;;;;6.88;3.92;;;;;;;;;;2065555;28;20371;-56
2023/09/20 04:41:29;;;;;;;6.18;4.15;;;;;;;;;;2072978;28;20054;-56
2023/09/20 04:42:33;;;;;;;6.05;4.38;;;;;;;;;;2073534;28;20046;-56
2023/09/20 04:43:34;;;;;;;6.10;4.55;;;;;;;;;;2073563;28;20068;-56
2023/09/20 04:44:34;;;;;;;6.43;4.55;;;;;;;;;;2065518;28;20157;-57
2023/09/20 04:45:35;;;;;;;7.13;4.35;;;;;;;;;;2073606;28;20467;-56
2023/09/20 04:46:36;;;;;;;5.47;3.95;;;;;;;;;;2073669;28;20038;-57
2023/09/20 04:47:37;;;;;;;5.65;3.95;;;;;;;;;;2072759;28;20042;-56
2023/09/20 04:48:41;;;;;;;5.57;3.97;;;;;;;;;;2073570;28;20406;-56
2023/09/20 04:49:42;;;;;;;7.15;4.80;;;;;;;;;;2065230;28;20045;-56
2023/09/20 04:50:43;;;;;;;6.60;4.63;;;;;;;;;;2065373;28;20054;-57
2023/09/20 04:51:43;;;;;;;6.40;3.67;;;;;;;;;;2073466;28;20393;-56
2023/09/20 04:52:46;;;;;;;5.65;3.92;;;;;;;;;;2065319;28;20038;-56
2023/09/20 04:53:47;;;;;;;6.50;4.63;;;;;;;;;;2065693;28;20422;-56
2023/09/20 04:54:48;;;;;;;5.43;4.47;;;;;;;;;;2073552;28;20030;-56
2023/09/20 04:55:49;;;;;;;5.88;4.40;;;;;;;;;;2074200;28;20038;-56
2023/09/20 04:56:51;;;;;;;6.72;4.43;;;;;;;;;;2074187;28;20029;-56
2023/09/20 04:57:52;;;;;;;6.32;5.10;;;;;;;;;;2073025;28;20034;-56
2023/09/20 04:58:53;;;;;;;6.13;4.70;;;;;;;;;;2064496;28;20042;-56
2023/09/20 04:59:54;;;;;;;6.28;5.13;;;;;;;;;;2073709;28;20077;-57
2023/09/20 05:00:55;;;;;;;6.63;5.07;;;;;;;;;;2074153;28;20033;-57
2023/09/20 05:01:55;;;;;;;6.68;4.70;;;;;;;;;;2073309;28;20069;-56
2023/09/20 05:02:57;;;;;;;8.30;5.20;;;;;;;;;;2064677;28;20046;-56
2023/09/20 05:03:58;;;;;;;5.57;4.78;;;;;;;;;;2065016;28;20034;-56
2023/09/20 05:04:59;;;;;;;9.95;4.88;;;;;;;;;;2065213;28;20042;-56
2023/09/20 05:06:00;;;;;;;7.72;4.72;;;;;;;;;;2072961;28;20038;-57
2023/09/20 05:07:05;;;;;;;5.88;4.13;;;;;;;;;;2073378;28;20493;-57
2023/09/20 05:08:05;;;;;;;6.20;4.60;;;;;;;;;;2073096;28;20512;-56
2023/09/20 05:09:06;;;;;;;6.70;4.70;;;;;;;;;;2073136;28;20071;-56
2023/09/20 05:10:07;;;;;;;6.63;4.30;;;;;;;;;;2065548;28;20049;-57
2023/09/20 05:11:10;;;;;;;6.60;4.63;;;;;;;;;;2064616;28;20051;-56
2023/09/20 05:12:12;;;;;;;8.10;4.57;;;;;;;;;;2065285;28;20038;-57
2023/09/20 05:13:12;;;;;;;5.82;3.63;;;;;;;;;;2073725;28;20029;-56
2023/09/20 05:14:14;;;;;;;8.20;4.28;;;;;;;;;;2073194;28;20425;-56
2023/09/20 05:15:15;;;;;;;5.80;3.78;;;;;;;;;;2065145;28;20042;-56
2023/09/20 05:16:16;;;;;;;4.97;3.40;;;;;;;;;;2072768;28;20042;-57
2023/09/20 05:17:16;;;;;;;4.63;3.35;;;;;;;;;;2073035;28;20042;-57
2023/09/20 05:18:18;;;;;;;5.03;3.05;;;;;;;;;;2073980;28;20050;-57
2023/09/20 05:19:19;;;;;;;5.78;3.10;;;;;;;;;;2065549;28;20050;-57
2023/09/20 05:20:20;;;;;;;5.05;2.78;;;;;;;;;;2066194;28;20110;-56
2023/09/20 05:21:20;;;;;;;6.45;2.58;;;;;;;;;;2065307;28;20051;-60
2023/09/20 05:22:23;;;;;;;4.97;3.25;;;;;;;;;;2064560;28;20043;-57
2023/09/20 05:23:24;;;;;;;5.03;3.28;;;;;;;;;;2073088;28;20100;-57
2023/09/20 05:24:25;;;;;;;3.67;2.90;;;;;;;;;;2073589;28;20038;-56
2023/09/20 05:25:26;;;;;;;4.10;2.58;;;;;;;;;;2064857;28;20049;-57
2023/09/20 05:26:28;;;;;;;4.50;2.80;;;;;;;;;;2064398;28;20489;-56
2023/09/20 05:27:29;;;;;;;6.03;2.75;;;;;;;;;;2065156;28;20038;-56
2023/09/20 05:28:30;;;;;;;3.72;2.50;;;;;;;;;;2072641;28;20049;-56
2023/09/20 05:29:31;;;;;;;4.28;2.50;;;;;;;;;;2072931;28;20517;-56
2023/09/20 05:30:32;;;;;;;4.32;2.55;;;;;;;;;;2073221;28;20041;-57
2023/09/20 05:31:33;;;;;;;5.20;2.63;;;;;;;;;;2072960;28;20474;-56
2023/09/20 05:32:35;;;;;;;3.42;2.53;;;;;;;;;;2072951;28;20038;-56
2023/09/20 05:33:36;;;;;;;4.47;2.35;;;;;;;;;;2073787;28;20054;-57
2023/09/20 05:34:39;;;;;;;3.20;2.33;;;;;;;;;;2073544;28;20049;-57
2023/09/20 05:35:40;;;;;;;4.30;2.35;;;;;;;;;;2073553;28;20050;-56
2023/09/20 05:36:43;;;;;;;4.53;2.40;;;;;;;;;;2073526;28;20057;-56
2023/09/20 05:37:43;;;;;;;4.82;2.50;;;;;;;;;;2073882;28;20033;-57
2023/09/20 05:38:44;;;;;;;4.80;2.20;;;;;;;;;;2074107;28;20045;-55
2023/09/20 05:39:48;;;;;;;4.18;2.50;;;;;;;;;;2073546;28;20045;-57
2023/09/20 05:40:49;;;;;;;4.38;2.80;;;;;;;;;;2073341;28;20042;-57
2023/09/20 05:41:50;;;;;;;4.07;2.80;;;;;;;;;;2074048;28;20441;-58
2023/09/20 05:42:50;;;;;;;5.50;1.98;;;;;;;;;;2074015;28;20446;-58
2023/09/20 05:43:51;;;;;;;4.35;2.28;;;;;;;;;;2073719;28;20041;-58
2023/09/20 05:44:53;;;;;;;5.07;2.30;;;;;;;;;;2073900;28;20079;-56
2023/09/20 05:45:54;;;;;;;8.77;2.67;;;;;;;;;;2073808;28;20034;-56
2023/09/20 05:46:55;;;;;;;3.65;2.40;;;;;;;;;;2073523;28;20038;-55
2023/09/20 05:47:57;;;;;;;5.53;2.35;;;;;;;;;;2073921;28;20041;-56
2023/09/20 05:48:57;;;;;;;3.47;2.30;;;;;;;;;;2073688;28;20041;-56
2023/09/20 05:49:59;;;;;;;6.05;2.28;;;;;;;;;;2073732;28;20053;-55
2023/09/20 05:50:59;;;;;;;5.72;1.95;;;;;;;;;;2073295;28;20050;-56
2023/09/20 05:52:02;;;;;;;4.80;2.05;;;;;;;;;;2073677;28;20038;-55
2023/09/20 05:53:04;;;;;;;4.75;2.28;;;;;;;;;;2073715;28;20041;-55
2023/09/20 05:54:05;;;;;;;4.40;2.10;;;;;;;;;;2073578;28;20046;-55
2023/09/20 05:55:13;;;;;;;5.25;2.05;;;;;;;;;;2073452;28;20038;-55
2023/09/20 05:56:14;;;;;;;3.93;2.17;;;;;;;;;;2073440;28;20049;-55
2023/09/20 05:57:18;;;;;;;7.65;2.80;;;;;;;;;;2073918;28;20260;-57
2023/09/20 05:58:18;;;;;;;4.50;2.22;;;;;;;;;;2073214;28;20105;-56
2023/09/20 05:59:19;;;;;;;5.43;1.80;;;;;;;;;;2073408;28;20157;-56
2023/09/20 06:00:22;;;;;;;4.22;1.90;;;;;;;;;;2073156;28;20406;-56
2023/09/20 06:01:23;;;;;;;6.28;2.20;;;;;;;;;;2073655;28;20038;-56
2023/09/20 06:02:24;;;;;;;3.97;2.00;;;;;;;;;;2073392;28;20054;-57
2023/09/20 06:03:25;;;;;;;2.72;2.03;;;;;;;;;;2073724;28;20359;-56
2023/09/20 06:04:26;;;;;;;5.25;2.13;;;;;;;;;;2073696;28;20492;-57
2023/09/20 06:05:26;;;;;;;6.78;2.15;;;;;;;;;;2073797;28;20061;-56
2023/09/20 06:06:27;;;;;;;3.63;2.00;;;;;;;;;;2074037;28;20121;-56
2023/09/20 06:07:28;;;;;;;4.38;2.00;;;;;;;;;;2073789;28;20053;-56
2023/09/20 06:08:28;;;;;;;3.25;2.00;;;;;;;;;;2073543;28;20057;-56
2023/09/20 06:09:29;;;;;;;4.32;2.05;;;;;;;;;;2073747;28;20065;-56